createdAt,value
2022-08-21T00:00:33.856Z,2.40
2022-08-21T00:03:10.055Z,2.53
2022-08-21T00:05:40.980Z,2.53
2022-08-21T00:08:09.750Z,3.20
2022-08-21T00:10:38.219Z,2.90
2022-08-21T00:13:08.797Z,2.40
2022-08-21T00:15:38.953Z,2.75
2022-08-21T00:18:08.992Z,2.30
2022-08-21T00:20:37.497Z,2.92
2022-08-21T00:23:05.908Z,2.83
2022-08-21T00:25:34.001Z,2.60
2022-08-21T00:28:02.833Z,2.53
2022-08-21T00:30:33.598Z,2.40
2022-08-21T00:33:02.998Z,2.60
2022-08-21T00:35:36.788Z,2.28
2022-08-21T00:38:06.622Z,2.67
2022-08-21T00:40:39.360Z,3.20
2022-08-21T00:43:10.662Z,2.38
2022-08-21T00:45:40.557Z,2.70
2022-08-21T00:48:08.863Z,2.78
2022-08-21T00:50:43.241Z,2.65
2022-08-21T00:53:12.999Z,3.10
2022-08-21T00:55:42.962Z,2.45
2022-08-21T00:58:14.487Z,2.70
2022-08-21T01:00:50.301Z,2.45
2022-08-21T01:03:23.739Z,2.80
2022-08-21T01:05:52.949Z,2.60
2022-08-21T01:08:23.053Z,2.63
2022-08-21T01:10:54.738Z,3.45
2022-08-21T01:13:28.521Z,2.75
2022-08-21T01:16:01.816Z,2.67
2022-08-21T01:18:30.060Z,3.60
2022-08-21T01:21:09.492Z,2.78
2022-08-21T01:23:43.311Z,2.75
2022-08-21T01:26:13.060Z,2.72
2022-08-21T01:28:46.055Z,2.95
2022-08-21T01:31:17.029Z,2.75
2022-08-21T01:33:48.135Z,2.80
2022-08-21T01:36:17.621Z,2.80
2022-08-21T01:38:45.915Z,3.10
2022-08-21T01:41:14.127Z,3.40
2022-08-21T01:43:42.941Z,3.15
2022-08-21T01:46:11.243Z,3.53
2022-08-21T01:48:39.636Z,3.72
2022-08-21T01:51:09.899Z,3.60
2022-08-21T01:53:43.242Z,3.30
2022-08-21T01:59:13.697Z,3.15
2022-08-21T02:01:41.919Z,3.15
2022-08-21T02:04:11.293Z,3.83
2022-08-21T02:06:40.544Z,3.50
2022-08-21T02:09:12.224Z,3.70
2022-08-21T02:11:41.424Z,3.22
2022-08-21T02:14:09.795Z,3.17
2022-08-21T02:16:38.286Z,3.75
2022-08-21T02:19:07.052Z,2.80
2022-08-21T02:21:35.540Z,3.15
2022-08-21T02:24:04.498Z,3.30
2022-08-21T02:26:34.561Z,3.20
2022-08-21T02:29:04.240Z,3.65
2022-08-21T02:31:32.398Z,4.10
2022-08-21T02:34:00.629Z,3.65
2022-08-21T02:36:29.165Z,3.35
2022-08-21T02:38:57.779Z,3.35
2022-08-21T02:41:26.231Z,3.17
2022-08-21T02:43:56.313Z,3.30
2022-08-21T02:46:24.813Z,3.00
2022-08-21T02:48:53.079Z,3.35
2022-08-21T02:51:23.387Z,3.40
2022-08-21T02:53:52.559Z,3.42
2022-08-21T02:56:23.076Z,3.00
2022-08-21T02:58:54.260Z,3.70
2022-08-21T03:01:24.603Z,3.65
2022-08-21T03:03:52.883Z,3.85
2022-08-21T03:06:22.764Z,3.28
2022-08-21T03:08:51.937Z,3.30
2022-08-21T03:11:20.235Z,3.00
2022-08-21T03:13:48.563Z,3.13
2022-08-21T03:16:16.974Z,3.72
2022-08-21T03:18:46.445Z,3.92
2022-08-21T03:21:14.835Z,3.88
2022-08-21T03:23:44.096Z,3.42
2022-08-21T03:26:12.597Z,3.75
2022-08-21T03:28:41.200Z,3.00
2022-08-21T03:31:09.656Z,3.97
2022-08-21T03:33:37.781Z,3.40
2022-08-21T03:36:09.481Z,3.40
2022-08-21T03:38:38.425Z,3.90
2022-08-21T03:41:08.206Z,4.25
2022-08-21T03:43:37.274Z,4.13
2022-08-21T03:46:06.681Z,3.83
2022-08-21T03:48:36.300Z,3.45
2022-08-21T03:51:05.520Z,3.90
2022-08-21T03:53:35.390Z,3.85
2022-08-21T03:56:04.549Z,3.63
2022-08-21T03:58:32.842Z,3.63
2022-08-21T04:01:02.912Z,3.78
2022-08-21T04:03:31.283Z,3.80
2022-08-21T04:05:59.615Z,3.60
2022-08-21T04:08:27.875Z,3.58
2022-08-21T04:11:00.269Z,4.05
2022-08-21T04:13:29.997Z,3.20
2022-08-21T04:15:59.086Z,3.92
2022-08-21T04:18:27.379Z,4.20
2022-08-21T04:20:56.633Z,3.90
2022-08-21T04:23:27.471Z,3.80
2022-08-21T04:25:57.997Z,4.05
2022-08-21T04:28:30.332Z,3.92
2022-08-21T04:30:59.419Z,3.42
2022-08-21T04:33:28.018Z,3.85
2022-08-21T04:35:56.340Z,3.70
2022-08-21T04:38:24.461Z,3.40
2022-08-21T04:40:53.475Z,4.05
2022-08-21T04:43:24.483Z,4.05
2022-08-21T04:45:53.873Z,4.93
2022-08-21T04:48:25.213Z,3.92
2022-08-21T04:50:59.057Z,3.65
2022-08-21T04:53:32.514Z,4.18
2022-08-21T04:56:06.591Z,3.55
2022-08-21T04:58:36.982Z,4.00
2022-08-21T05:01:09.067Z,3.65
2022-08-21T05:03:39.073Z,3.85
2022-08-21T05:06:11.154Z,3.65
2022-08-21T05:08:40.707Z,4.15
2022-08-21T05:11:09.304Z,4.07
2022-08-21T05:13:38.784Z,3.60
2022-08-21T05:16:07.374Z,3.67
2022-08-21T05:18:35.575Z,4.28
2022-08-21T05:21:03.925Z,3.78
2022-08-21T05:23:32.088Z,4.25
2022-08-21T05:26:00.347Z,4.88
2022-08-21T05:28:28.584Z,4.57
2022-08-21T05:30:58.328Z,3.90
2022-08-21T05:33:26.533Z,4.80
2022-08-21T05:35:57.096Z,4.30
2022-08-21T05:38:25.980Z,4.80
2022-08-21T05:40:54.136Z,4.15
2022-08-21T05:43:22.447Z,5.75
2022-08-21T05:45:50.731Z,4.55
2022-08-21T05:48:23.056Z,4.28
2022-08-21T05:50:52.694Z,4.22
2022-08-21T05:53:22.528Z,4.75
2022-08-21T05:55:51.283Z,3.67
2022-08-21T05:58:21.765Z,4.30
2022-08-21T06:00:52.005Z,4.30
2022-08-21T06:03:24.595Z,4.63
2022-08-21T06:05:53.779Z,4.47
2022-08-21T06:08:22.598Z,5.00
2022-08-21T06:10:52.171Z,4.10
2022-08-21T06:13:21.740Z,4.25
2022-08-21T06:15:50.150Z,4.50
2022-08-21T06:18:18.412Z,4.10
2022-08-21T06:20:47.890Z,4.25
2022-08-21T06:23:16.133Z,4.85
2022-08-21T06:25:44.853Z,4.40
2022-08-21T06:28:13.501Z,4.10
2022-08-21T06:30:42.098Z,4.88
2022-08-21T06:33:10.456Z,4.03
2022-08-21T06:35:41.553Z,3.75
2022-08-21T06:38:11.390Z,4.15
2022-08-21T06:40:43.860Z,3.80
2022-08-21T06:43:40.501Z,4.55
2022-08-21T06:46:09.948Z,3.65
2022-08-21T06:48:38.194Z,4.57
2022-08-21T06:51:06.737Z,4.07
2022-08-21T06:53:36.945Z,4.20
2022-08-21T06:56:05.513Z,5.05
2022-08-21T06:58:33.870Z,4.43
2022-08-21T07:01:02.505Z,4.45
2022-08-21T07:03:35.086Z,4.82
2022-08-21T07:06:03.310Z,5.80
2022-08-21T07:08:31.828Z,4.50
2022-08-21T07:11:03.510Z,4.70
2022-08-21T07:13:31.585Z,4.20
2022-08-21T07:16:03.834Z,5.05
2022-08-21T07:18:32.572Z,4.60
2022-08-21T07:21:02.880Z,4.10
2022-08-21T07:23:33.950Z,4.90
2022-08-21T07:26:07.413Z,4.30
2022-08-21T07:28:36.452Z,4.18
2022-08-21T07:31:06.063Z,4.30
2022-08-21T07:33:36.175Z,4.10
2022-08-21T07:36:05.518Z,4.18
2022-08-21T07:38:33.893Z,5.03
2022-08-21T07:41:04.173Z,4.90
2022-08-21T07:43:32.518Z,4.85
2022-08-21T07:46:01.210Z,4.50
2022-08-21T07:48:29.461Z,4.55
2022-08-21T07:50:57.796Z,4.55
2022-08-21T07:53:25.982Z,3.97
2022-08-21T07:55:54.106Z,4.00
2022-08-21T07:58:23.630Z,4.17
2022-08-21T08:00:52.045Z,4.27
2022-08-21T08:03:28.336Z,4.30
2022-08-21T08:05:58.011Z,3.80
2022-08-21T08:08:26.208Z,4.40
2022-08-21T08:10:55.682Z,5.30
2022-08-21T08:13:25.435Z,4.33
2022-08-21T08:15:53.968Z,4.10
2022-08-21T08:18:22.188Z,4.90
2022-08-21T08:20:50.493Z,4.10
2022-08-21T08:23:18.676Z,4.43
2022-08-21T08:25:47.483Z,4.17
2022-08-21T08:28:17.103Z,5.17
2022-08-21T08:30:47.958Z,4.30
2022-08-21T08:33:18.036Z,4.53
2022-08-21T08:35:48.590Z,4.27
2022-08-21T08:38:20.922Z,4.33
2022-08-21T08:40:57.648Z,4.40
2022-08-21T08:43:26.021Z,4.13
2022-08-21T08:45:57.804Z,4.03
2022-08-21T08:48:40.954Z,4.33
2022-08-21T08:51:15.608Z,4.40
2022-08-21T08:53:51.601Z,3.87
2022-08-21T08:56:24.001Z,3.97
2022-08-21T08:58:54.623Z,3.50
2022-08-21T09:01:24.327Z,4.00
2022-08-21T09:03:54.545Z,4.40
2022-08-21T09:06:39.422Z,5.13
2022-08-21T09:09:18.264Z,4.30
2022-08-21T09:11:54.847Z,3.80
2022-08-21T09:14:30.964Z,4.33
2022-08-21T09:17:06.949Z,4.97
2022-08-21T09:19:50.376Z,4.00
2022-08-21T09:22:26.154Z,3.90
2022-08-21T09:25:04.695Z,4.53
2022-08-21T09:27:33.825Z,4.93
2022-08-21T09:30:03.168Z,3.67
2022-08-21T09:32:38.213Z,4.10
2022-08-21T09:35:11.162Z,4.47
2022-08-21T09:37:50.698Z,4.30
2022-08-21T09:40:31.712Z,4.07
2022-08-21T09:43:02.836Z,3.40
2022-08-21T09:45:33.963Z,4.27
2022-08-21T09:48:16.746Z,4.30
2022-08-21T09:50:45.528Z,4.23
2022-08-21T09:53:20.569Z,4.00
2022-08-21T09:56:11.509Z,4.17
2022-08-21T09:58:42.661Z,4.20
2022-08-21T10:01:18.070Z,4.27
2022-08-21T10:03:48.654Z,4.20
2022-08-21T10:06:25.639Z,4.70
2022-08-21T10:09:05.030Z,4.03
2022-08-21T10:11:34.244Z,3.73
2022-08-21T10:14:10.794Z,3.90
2022-08-21T10:16:51.253Z,3.90
2022-08-21T10:19:34.353Z,4.20
2022-08-21T10:22:12.669Z,4.43
2022-08-21T10:24:50.091Z,5.20
2022-08-21T10:27:26.368Z,5.20
2022-08-21T10:30:01.767Z,4.60
2022-08-21T10:32:51.777Z,4.50
2022-08-21T10:35:26.746Z,3.73
2022-08-21T10:38:10.564Z,3.87
2022-08-21T10:40:44.549Z,4.13
2022-08-21T10:43:26.192Z,4.40
2022-08-21T10:46:02.874Z,4.53
2022-08-21T10:48:37.481Z,4.40
2022-08-21T10:51:16.794Z,4.07
2022-08-21T10:54:18.182Z,3.70
2022-08-21T10:56:53.367Z,3.90
2022-08-21T10:59:30.054Z,4.27
2022-08-21T11:02:03.260Z,4.90
2022-08-21T11:04:49.394Z,3.80
2022-08-21T11:07:24.724Z,4.10
2022-08-21T11:09:56.640Z,4.63
2022-08-21T11:12:30.966Z,4.37
2022-08-21T11:15:04.461Z,4.10
2022-08-21T11:17:38.305Z,4.67
2022-08-21T11:20:11.866Z,3.90
2022-08-21T11:22:52.564Z,3.80
2022-08-21T11:25:36.431Z,4.30
2022-08-21T11:28:14.213Z,4.10
2022-08-21T11:30:50.253Z,4.33
2022-08-21T11:33:43.874Z,3.57
2022-08-21T11:36:20.505Z,4.10
2022-08-21T11:38:57.718Z,3.93
2022-08-21T11:41:31.537Z,4.17
2022-08-21T11:44:11.196Z,3.67
2022-08-21T11:46:49.732Z,3.73
2022-08-21T11:49:34.058Z,3.60
2022-08-21T11:52:11.529Z,4.70
2022-08-21T11:54:46.121Z,4.70
2022-08-21T11:57:22.254Z,3.70
2022-08-21T11:59:55.653Z,4.70
2022-08-21T12:02:30.252Z,4.60
2022-08-21T12:05:08.200Z,4.13
2022-08-21T12:07:42.127Z,4.10
2022-08-21T12:10:15.586Z,5.23
2022-08-21T12:12:45.782Z,4.30
2022-08-21T12:15:26.361Z,4.10
2022-08-21T12:17:59.154Z,4.60
2022-08-21T12:21:00.096Z,3.70
2022-08-21T12:23:31.667Z,3.50
2022-08-21T12:26:24.607Z,3.97
2022-08-21T12:28:53.314Z,3.63
2022-08-21T12:31:27.540Z,4.23
2022-08-21T12:34:03.309Z,3.53
2022-08-21T12:36:44.412Z,3.30
2022-08-21T12:39:20.555Z,5.13
2022-08-21T12:46:56.680Z,3.57
2022-08-21T12:49:31.664Z,3.53
2022-08-21T12:56:58.739Z,4.50
2022-08-21T12:59:27.113Z,3.43
2022-08-21T13:01:57.776Z,3.70
2022-08-21T13:04:35.981Z,3.63
2022-08-21T13:07:11.757Z,3.50
2022-08-21T13:09:46.633Z,3.93
2022-08-21T13:12:16.795Z,3.70
2022-08-21T13:14:48.310Z,3.60
2022-08-21T13:17:25.948Z,4.10
2022-08-21T13:19:59.638Z,3.20
2022-08-21T13:22:35.103Z,3.20
2022-08-21T13:25:06.601Z,3.60
2022-08-21T13:27:36.194Z,3.90
2022-08-21T13:30:09.519Z,3.40
2022-08-21T13:32:43.327Z,3.63
2022-08-21T13:35:19.644Z,3.20
2022-08-21T13:37:51.036Z,3.37
2022-08-21T13:40:22.277Z,3.43
2022-08-21T13:42:51.151Z,3.63
2022-08-21T13:45:26.223Z,3.20
2022-08-21T13:47:56.237Z,3.40
2022-08-21T13:50:27.814Z,3.20
2022-08-21T13:53:00.739Z,3.20
2022-08-21T13:55:39.162Z,2.87
2022-08-21T13:58:08.166Z,3.53
2022-08-21T14:00:45.010Z,3.90
2022-08-21T14:03:28.022Z,3.43
2022-08-21T14:05:56.558Z,3.30
2022-08-21T14:08:34.898Z,3.37
2022-08-21T14:11:06.071Z,3.10
2022-08-21T14:13:42.350Z,3.93
2022-08-21T14:16:20.456Z,3.27
2022-08-21T14:18:53.724Z,3.23
2022-08-21T14:21:35.791Z,2.97
2022-08-21T14:24:11.389Z,3.60
2022-08-21T14:26:49.091Z,3.40
2022-08-21T14:29:19.773Z,3.40
2022-08-21T14:31:53.803Z,3.37
2022-08-21T14:34:24.525Z,3.43
2022-08-21T14:36:52.975Z,4.10
2022-08-21T14:39:21.345Z,3.33
2022-08-21T14:41:50.568Z,3.30
2022-08-21T14:44:20.273Z,2.70
2022-08-21T14:46:55.505Z,3.27
2022-08-21T14:49:28.945Z,3.87
2022-08-21T14:51:59.345Z,3.40
2022-08-21T14:54:30.980Z,2.97
2022-08-21T14:57:02.579Z,3.00
2022-08-21T14:59:31.573Z,3.17
2022-08-21T15:01:59.679Z,3.40
2022-08-21T15:04:29.515Z,3.30
2022-08-21T15:06:57.912Z,3.50
2022-08-21T15:09:26.050Z,3.27
2022-08-21T15:11:57.677Z,3.07
2022-08-21T15:14:28.811Z,4.30
2022-08-21T15:16:57.362Z,4.70
2022-08-21T15:19:25.663Z,3.43
2022-08-21T15:21:55.307Z,3.97
2022-08-21T15:24:23.515Z,3.50
2022-08-21T15:26:52.485Z,3.40
2022-08-21T15:29:22.546Z,3.47
2022-08-21T15:31:57.555Z,3.43
2022-08-21T15:34:28.332Z,3.20
2022-08-21T15:36:58.725Z,4.00
2022-08-21T15:39:30.170Z,3.60
2022-08-21T15:42:02.801Z,3.93
2022-08-21T15:44:40.777Z,3.40
2022-08-21T15:47:09.420Z,3.50
2022-08-21T15:49:37.768Z,3.87
2022-08-21T15:52:07.511Z,3.70
2022-08-21T15:54:35.558Z,3.60
2022-08-21T15:57:03.850Z,2.93
2022-08-21T15:59:40.533Z,3.23
2022-08-21T16:02:14.567Z,3.60
2022-08-21T16:04:43.075Z,3.47
2022-08-21T16:07:12.644Z,3.70
2022-08-21T16:09:40.942Z,3.13
2022-08-21T16:12:11.977Z,4.00
2022-08-21T16:14:40.751Z,3.70
2022-08-21T16:17:09.729Z,3.10
2022-08-21T16:19:39.692Z,3.20
2022-08-21T16:22:08.071Z,5.53
2022-08-21T16:24:37.599Z,4.10
2022-08-21T16:27:08.412Z,4.70
2022-08-21T16:29:39.498Z,3.27
2022-08-21T16:32:09.389Z,3.23
2022-08-21T16:34:37.775Z,3.20
2022-08-21T16:37:06.230Z,5.73
2022-08-21T16:39:34.412Z,5.77
2022-08-21T16:42:04.626Z,3.80
2022-08-21T16:44:34.638Z,7.57
2022-08-21T16:47:03.192Z,4.70
2022-08-21T16:49:32.270Z,5.27
2022-08-21T16:52:00.551Z,3.60
2022-08-21T16:54:30.973Z,4.00
2022-08-21T16:56:59.784Z,3.33
2022-08-21T16:59:29.380Z,3.40
2022-08-21T17:01:58.214Z,3.70
2022-08-21T17:04:28.452Z,3.70
2022-08-21T17:06:56.859Z,3.47
2022-08-21T17:09:24.979Z,3.77
2022-08-21T17:11:53.364Z,3.17
2022-08-21T17:14:24.362Z,3.70
2022-08-21T17:16:56.556Z,3.63
2022-08-21T17:19:25.053Z,2.80
2022-08-21T17:21:53.312Z,3.30
2022-08-21T17:24:21.525Z,2.53
2022-08-21T17:26:50.891Z,3.47
2022-08-21T17:29:25.665Z,2.80
2022-08-21T17:31:55.364Z,3.13
2022-08-21T17:34:26.222Z,3.30
2022-08-21T17:36:59.456Z,3.30
2022-08-21T17:39:27.872Z,3.70
2022-08-21T17:41:58.190Z,3.13
2022-08-21T17:44:27.015Z,3.60
2022-08-21T17:46:56.551Z,2.70
2022-08-21T17:49:25.481Z,3.53
2022-08-21T17:51:53.682Z,3.13
2022-08-21T17:54:21.987Z,3.23
2022-08-21T17:56:50.234Z,2.97
2022-08-21T17:59:18.720Z,3.50
2022-08-21T18:01:48.285Z,3.33
2022-08-21T18:04:18.234Z,3.27
2022-08-21T18:06:47.394Z,3.63
2022-08-21T18:09:15.878Z,3.70
2022-08-21T18:11:44.965Z,4.47
2022-08-21T18:14:15.295Z,3.60
2022-08-21T18:16:43.782Z,3.83
2022-08-21T18:19:16.059Z,4.13
2022-08-21T18:21:45.773Z,3.93
2022-08-21T18:24:14.067Z,3.27
2022-08-21T18:26:43.802Z,3.70
2022-08-21T18:29:15.002Z,3.50
2022-08-21T18:31:46.170Z,3.80
2022-08-21T18:34:25.813Z,3.40
2022-08-21T18:36:57.043Z,3.27
2022-08-21T18:39:36.463Z,3.00
2022-08-21T18:42:09.110Z,3.33
2022-08-21T18:44:38.746Z,3.47
2022-08-21T18:47:11.609Z,3.10
2022-08-21T18:52:30.833Z,3.00
2022-08-21T18:54:59.105Z,3.47
2022-08-21T18:57:34.586Z,3.30
2022-08-21T19:00:08.521Z,3.40
2022-08-21T19:02:36.645Z,2.70
2022-08-21T19:05:15.129Z,3.67
2022-08-21T19:07:44.677Z,3.00
2022-08-21T19:10:27.909Z,3.20
2022-08-21T19:12:58.478Z,3.70
2022-08-21T19:15:26.816Z,3.10
2022-08-21T19:17:55.812Z,3.13
2022-08-21T19:20:27.606Z,3.40
2022-08-21T19:22:58.082Z,3.27
2022-08-21T19:25:33.799Z,3.00
2022-08-21T19:28:10.868Z,2.50
2022-08-21T19:30:41.433Z,2.60
2022-08-21T19:33:11.288Z,3.23
2022-08-21T19:35:52.574Z,2.90
2022-08-21T19:38:23.231Z,3.20
2022-08-21T19:40:52.673Z,2.73
2022-08-21T19:43:23.185Z,2.70
2022-08-21T19:45:54.221Z,3.60
2022-08-21T19:48:22.998Z,2.70
2022-08-21T19:50:51.287Z,3.17
2022-08-21T19:53:19.995Z,3.10
2022-08-21T19:55:49.996Z,3.27
2022-08-21T19:58:29.839Z,3.23
2022-08-21T20:00:58.095Z,3.07
2022-08-21T20:03:26.294Z,3.13
2022-08-21T20:05:54.710Z,2.67
2022-08-21T20:08:23.690Z,2.53
2022-08-21T20:11:03.180Z,3.00
2022-08-21T20:13:34.500Z,3.00
2022-08-21T20:16:06.200Z,3.13
2022-08-21T20:18:37.308Z,2.50
2022-08-21T20:21:10.863Z,2.87
2022-08-21T20:23:48.848Z,2.70
2022-08-21T20:26:29.233Z,3.07
2022-08-21T20:28:58.145Z,3.03
2022-08-21T20:31:27.863Z,2.80
2022-08-21T20:33:56.176Z,2.90
2022-08-21T20:36:24.838Z,3.03
2022-08-21T20:38:53.233Z,3.13
2022-08-21T20:44:15.216Z,2.70
2022-08-21T20:46:44.164Z,2.73
2022-08-21T20:49:15.271Z,2.90
2022-08-21T20:51:47.128Z,2.77
2022-08-21T20:54:21.675Z,2.63
2022-08-21T20:56:56.979Z,3.03
2022-08-21T20:59:47.808Z,2.90
2022-08-21T21:02:36.430Z,3.07
2022-08-21T21:05:10.328Z,3.03
2022-08-21T21:07:47.363Z,3.37
2022-08-21T21:13:20.664Z,3.00
2022-08-21T21:15:56.373Z,3.20
2022-08-21T21:18:32.513Z,3.20
2022-08-21T21:21:08.439Z,2.73
2022-08-21T21:23:43.257Z,2.70
2022-08-21T21:26:17.602Z,4.07
2022-08-21T21:28:53.718Z,2.93
2022-08-21T21:31:23.626Z,2.88
2022-08-21T21:33:51.715Z,3.70
2022-08-21T21:36:27.974Z,3.00
2022-08-21T21:39:09.304Z,2.97
2022-08-21T21:41:46.362Z,3.38
2022-08-21T21:44:34.089Z,3.20
2022-08-21T21:47:08.621Z,3.30
2022-08-21T21:49:51.308Z,3.00
2022-08-21T21:52:34.440Z,3.40
2022-08-21T21:55:23.798Z,2.53
2022-08-21T21:58:16.770Z,3.55
2022-08-21T22:01:10.051Z,2.90
2022-08-21T22:03:51.385Z,3.40
2022-08-21T22:06:28.979Z,3.30
2022-08-21T22:09:09.408Z,3.17
2022-08-21T22:11:47.877Z,3.65
2022-08-21T22:14:33.795Z,3.25
2022-08-21T22:17:08.275Z,3.60
2022-08-21T22:19:44.225Z,3.40
2022-08-21T22:22:16.754Z,2.70
2022-08-21T22:24:48.593Z,3.33
2022-08-21T22:27:21.859Z,3.10
2022-08-21T22:29:53.637Z,2.42
2022-08-21T22:32:29.442Z,3.85
2022-08-21T22:35:12.219Z,3.30
2022-08-21T22:37:44.924Z,3.25
2022-08-21T22:43:18.806Z,3.20
2022-08-21T22:48:57.349Z,2.80
2022-08-21T22:51:36.188Z,3.60
2022-08-21T22:54:09.656Z,3.53
2022-08-21T22:57:00.683Z,3.78
2022-08-21T22:59:34.907Z,3.60
2022-08-21T23:02:07.883Z,3.35
2022-08-21T23:04:48.407Z,3.00
2022-08-21T23:07:35.403Z,3.40
2022-08-21T23:10:21.325Z,3.05
2022-08-21T23:12:51.136Z,4.22
2022-08-21T23:15:22.925Z,3.85
2022-08-21T23:18:01.309Z,3.20
2022-08-21T23:20:34.584Z,3.38
2022-08-21T23:23:13.832Z,3.88
2022-08-21T23:25:59.637Z,3.58
2022-08-21T23:28:43.780Z,3.45
2022-08-21T23:31:20.241Z,3.28
2022-08-21T23:34:05.955Z,3.50
2022-08-21T23:37:01.726Z,3.42
2022-08-21T23:42:57.204Z,3.45
2022-08-21T23:45:37.222Z,3.97
2022-08-21T23:51:12.827Z,3.67
2022-08-21T23:53:55.070Z,2.90
2022-08-21T23:56:40.828Z,2.90
2022-08-21T23:59:22.495Z,3.75
